Ayrshire, Iowa
Current Conditions -  °F | °C
As of 4:53 PM on Sunday 21 Dec 2014 (Local Time) from KSPW Reporting Station
Haze Haze  
Wind Chill: 30°   Ceiling: 400
Heat Index: 39°   Visibility: 4mi
Dew Point: 36°   Wind: 18mph
Humidity: 89%   Direction: 170°S
Pressure: 29.68"   Gusts: NA
Location:  43.04°N, 94.83°W
Report Text: KSPW 212253Z AUTO 17016KT 4SM BR OVC004 04/02 A2968 RMK AO2 SLP062 T00390022 TSNO
Loading
Personal Weather Stations






























Interactive Weather Map New forecast layout! Learn more

10-Day Weather Forecast

Advertisements
Track Severe Weather on mobile